Time;durP1;ratioP1;P1;durP2;ratioP2;P2;SDS_P1;SDS_P2;PMS_P1;PMS_P2;Temp;Humidity;BMP_temperature;BMP_pressure;BME280_temperature;BME280_humidity;BME280_pressure;Samples;Min_cycle;Max_cycle;Signal;HPM_P1;HPM_P2
2022/04/28 00:01:51;;;;;;;0.10;0.10;;;;;;;;;;5070537;28;20025;-76
2022/04/28 00:04:17;;;;;;;0.10;0.10;;;;;;;;;;5071539;28;20024;-76
2022/04/28 00:06:44;;;;;;;0.10;0.10;;;;;;;;;;5072012;28;20086;-74
2022/04/28 00:09:10;;;;;;;0.10;0.10;;;;;;;;;;5071958;28;20021;-74
2022/04/28 00:11:36;;;;;;;0.10;0.10;;;;;;;;;;5071296;28;20545;-74
2022/04/28 00:14:02;;;;;;;0.10;0.10;;;;;;;;;;5071551;28;20021;-75
2022/04/28 00:16:28;;;;;;;0.10;0.10;;;;;;;;;;5070122;28;20214;-74
2022/04/28 00:18:54;;;;;;;0.20;0.20;;;;;;;;;;5070919;28;20056;-74
2022/04/28 00:21:21;;;;;;;0.10;0.10;;;;;;;;;;5071280;28;20043;-75
2022/04/28 00:23:47;;;;;;;0.10;0.10;;;;;;;;;;5070191;28;20028;-75
2022/04/28 00:26:15;;;;;;;0.20;0.20;;;;;;;;;;5071806;28;20028;-74
2022/04/28 00:28:41;;;;;;;0.10;0.10;;;;;;;;;;5071748;28;20110;-75
2022/04/28 00:31:07;;;;;;;0.13;0.13;;;;;;;;;;5071331;28;20024;-75
2022/04/28 00:33:33;;;;;;;0.20;0.20;;;;;;;;;;5071138;28;20024;-75
2022/04/28 00:35:59;;;;;;;0.10;0.10;;;;;;;;;;5071265;28;20036;-76
2022/04/28 00:38:25;;;;;;;0.10;0.10;;;;;;;;;;5071085;28;20086;-74
2022/04/28 00:40:51;;;;;;;0.10;0.10;;;;;;;;;;5071256;28;20027;-75
2022/04/28 00:43:20;;;;;;;0.10;0.10;;;;;;;;;;5071002;28;20490;-75
2022/04/28 00:45:47;;;;;;;0.10;0.10;;;;;;;;;;5071115;28;20029;-76
2022/04/28 00:51:00;;;;;;;0.10;0.10;;;;;;;;;;5051088;28;20051;-74
2022/04/28 00:53:27;;;;;;;0.10;0.10;;;;;;;;;;5050807;28;20028;-75
2022/04/28 00:55:53;;;;;;;0.10;0.10;;;;;;;;;;5051157;28;20037;-75
2022/04/28 00:58:20;;;;;;;0.10;0.10;;;;;;;;;;5050836;28;20025;-75
2022/04/28 01:00:46;;;;;;;0.10;0.10;;;;;;;;;;5051076;28;20029;-76
2022/04/28 01:03:12;;;;;;;0.10;0.10;;;;;;;;;;5051277;28;20022;-75
2022/04/28 01:05:39;;;;;;;0.10;0.10;;;;;;;;;;5050662;28;20028;-75
2022/04/28 01:08:06;;;;;;;0.10;0.10;;;;;;;;;;5051043;28;20481;-75
2022/04/28 01:10:33;;;;;;;0.10;0.10;;;;;;;;;;5050632;28;20032;-75
2022/04/28 01:12:59;;;;;;;0.10;0.10;;;;;;;;;;5050972;28;20063;-75
2022/04/28 01:15:25;;;;;;;0.10;0.10;;;;;;;;;;5050570;28;20445;-75
2022/04/28 01:17:51;;;;;;;0.10;0.10;;;;;;;;;;5050778;28;20055;-75
2022/04/28 01:20:17;;;;;;;0.10;0.10;;;;;;;;;;5050619;28;20017;-75
2022/04/28 01:22:43;;;;;;;0.17;0.17;;;;;;;;;;5051214;28;20594;-76
2022/04/28 01:25:09;;;;;;;0.10;0.10;;;;;;;;;;5051157;28;20029;-75
2022/04/28 01:27:36;;;;;;;0.10;0.10;;;;;;;;;;5050590;28;20094;-74
2022/04/28 01:30:11;;;;;;;0.10;0.10;;;;;;;;;;5053500;28;20052;-74
2022/04/28 01:32:37;;;;;;;0.20;0.20;;;;;;;;;;5054339;28;20021;-76
2022/04/28 01:35:03;;;;;;;0.10;0.10;;;;;;;;;;5054572;28;20029;-74
2022/04/28 01:37:29;;;;;;;0.10;0.10;;;;;;;;;;5054118;28;20079;-74
2022/04/28 01:39:56;;;;;;;0.15;0.15;;;;;;;;;;5054529;28;20021;-74
2022/04/28 01:42:23;;;;;;;0.10;0.10;;;;;;;;;;5054254;28;20025;-77
2022/04/28 01:44:49;;;;;;;0.10;0.10;;;;;;;;;;5054323;28;20390;-76
2022/04/28 01:47:16;;;;;;;0.10;0.10;;;;;;;;;;5052738;28;20370;-76
2022/04/28 01:49:42;;;;;;;0.10;0.10;;;;;;;;;;5054711;28;20083;-77
2022/04/28 01:54:58;;;;;;;0.10;0.10;;;;;;;;;;5054297;28;20088;-75
2022/04/28 01:57:26;;;;;;;0.10;0.10;;;;;;;;;;5054000;28;20554;-75
2022/04/28 01:59:52;;;;;;;0.10;0.10;;;;;;;;;;5054096;28;20499;-74
2022/04/28 02:02:18;;;;;;;0.10;0.10;;;;;;;;;;5053887;28;20052;-74
2022/04/28 02:04:45;;;;;;;0.10;0.10;;;;;;;;;;5054264;28;20029;-75
2022/04/28 02:07:13;;;;;;;0.08;0.08;;;;;;;;;;5054386;28;20025;-74
2022/04/28 02:09:39;;;;;;;0.10;0.10;;;;;;;;;;5052699;28;20497;-77
2022/04/28 02:12:05;;;;;;;0.10;0.10;;;;;;;;;;5053925;28;20025;-76
2022/04/28 02:14:31;;;;;;;0.10;0.10;;;;;;;;;;5053667;28;20098;-77
2022/04/28 02:16:57;;;;;;;0.10;0.10;;;;;;;;;;5053828;28;20037;-76
2022/04/28 02:19:24;;;;;;;0.17;0.17;;;;;;;;;;5053583;28;20027;-76
2022/04/28 02:21:50;;;;;;;0.13;0.13;;;;;;;;;;5052349;28;20048;-77
2022/04/28 02:24:16;;;;;;;0.13;0.13;;;;;;;;;;5053320;28;20017;-78
2022/04/28 02:26:42;;;;;;;0.10;0.10;;;;;;;;;;5052506;28;20409;-76
2022/04/28 02:29:08;;;;;;;0.13;0.13;;;;;;;;;;5053668;28;20021;-76
2022/04/28 02:31:35;;;;;;;0.10;0.10;;;;;;;;;;5053336;28;20496;-75
2022/04/28 02:34:01;;;;;;;0.10;0.10;;;;;;;;;;5053390;28;20028;-76
2022/04/28 02:36:27;;;;;;;0.10;0.10;;;;;;;;;;5053102;28;20036;-77
2022/04/28 02:38:53;;;;;;;0.10;0.10;;;;;;;;;;5053379;28;20079;-77
2022/04/28 02:41:21;;;;;;;0.10;0.10;;;;;;;;;;5052470;28;20033;-76
2022/04/28 02:43:50;;;;;;;0.10;0.10;;;;;;;;;;5053249;28;20028;-76
2022/04/28 02:46:16;;;;;;;0.10;0.10;;;;;;;;;;5052857;28;20439;-76
2022/04/28 02:48:42;;;;;;;0.10;0.10;;;;;;;;;;5053587;28;20025;-75
2022/04/28 02:51:08;;;;;;;0.10;0.10;;;;;;;;;;5051952;28;20032;-76
2022/04/28 02:53:34;;;;;;;0.10;0.10;;;;;;;;;;5052851;28;20025;-75
2022/04/28 02:56:01;;;;;;;0.10;0.10;;;;;;;;;;5052922;28;20029;-74
2022/04/28 02:58:27;;;;;;;0.10;0.10;;;;;;;;;;5051682;28;20032;-75
2022/04/28 03:00:53;;;;;;;0.10;0.10;;;;;;;;;;5053035;28;20502;-74
2022/04/28 03:03:19;;;;;;;0.10;0.10;;;;;;;;;;5051279;28;20040;-76
2022/04/28 03:11:32;;;;;;;0.20;0.20;;;;;;;;;;5049357;28;20132;-75
2022/04/28 03:13:59;;;;;;;0.10;0.10;;;;;;;;;;5052732;28;20496;-74
2022/04/28 03:16:25;;;;;;;0.10;0.10;;;;;;;;;;5052369;28;20496;-76
2022/04/28 03:18:51;;;;;;;0.10;0.10;;;;;;;;;;5052683;28;20017;-74
2022/04/28 03:21:17;;;;;;;0.10;0.10;;;;;;;;;;5051052;28;20499;-75
2022/04/28 03:23:43;;;;;;;0.10;0.10;;;;;;;;;;5052818;28;20027;-75
2022/04/28 03:26:10;;;;;;;0.10;0.10;;;;;;;;;;5052847;28;20029;-74
2022/04/28 03:28:37;;;;;;;0.10;0.10;;;;;;;;;;5052256;28;20493;-75
2022/04/28 03:31:04;;;;;;;0.10;0.10;;;;;;;;;;5052410;28;20023;-75
2022/04/28 03:33:30;;;;;;;0.10;0.10;;;;;;;;;;5050732;28;20024;-74
2022/04/28 03:35:56;;;;;;;0.10;0.10;;;;;;;;;;5052331;28;20047;-76
2022/04/28 03:38:22;;;;;;;0.10;0.10;;;;;;;;;;5050727;28;20128;-75
2022/04/28 03:40:48;;;;;;;0.10;0.10;;;;;;;;;;5052243;28;20457;-75
2022/04/28 03:43:14;;;;;;;0.10;0.10;;;;;;;;;;5050611;28;20397;-74
2022/04/28 03:45:41;;;;;;;0.10;0.10;;;;;;;;;;5052421;28;20032;-75
2022/04/28 03:48:10;;;;;;;0.10;0.10;;;;;;;;;;5051890;28;20024;-75
2022/04/28 03:50:39;;;;;;;0.10;0.10;;;;;;;;;;5051877;28;20550;-75
2022/04/28 03:53:06;;;;;;;0.10;0.10;;;;;;;;;;5051016;28;20551;-75
2022/04/28 03:55:32;;;;;;;0.10;0.10;;;;;;;;;;5050303;28;20396;-76
2022/04/28 03:57:58;;;;;;;0.10;0.10;;;;;;;;;;5052010;28;20112;-76
2022/04/28 04:00:26;;;;;;;0.10;0.10;;;;;;;;;;5051701;28;20049;-73
2022/04/28 04:02:52;;;;;;;0.13;0.13;;;;;;;;;;5051790;28;20037;-74
2022/04/28 04:05:18;;;;;;;0.10;0.10;;;;;;;;;;5051535;28;20021;-74
2022/04/28 04:07:44;;;;;;;0.10;0.10;;;;;;;;;;5051887;28;20462;-74
2022/04/28 04:10:13;;;;;;;0.10;0.10;;;;;;;;;;5052034;28;20040;-76
2022/04/28 04:12:40;;;;;;;0.10;0.10;;;;;;;;;;5051801;28;20031;-74
2022/04/28 04:15:06;;;;;;;1.05;1.05;;;;;;;;;;5051574;28;20504;-74
2022/04/28 04:17:40;;;;;;;0.10;0.10;;;;;;;;;;5051258;28;20035;-74
2022/04/28 04:20:07;;;;;;;0.17;0.17;;;;;;;;;;5051653;28;20072;-75
2022/04/28 04:22:33;;;;;;;0.10;0.10;;;;;;;;;;5051317;28;20032;-75
2022/04/28 04:24:59;;;;;;;0.10;0.10;;;;;;;;;;5051523;28;20083;-76
2022/04/28 04:27:25;;;;;;;0.10;0.10;;;;;;;;;;5051149;28;20033;-75
2022/04/28 04:29:51;;;;;;;0.10;0.10;;;;;;;;;;5051380;28;20068;-76
2022/04/28 04:32:17;;;;;;;48.13;45.20;;;;;;;;;;5051186;28;20028;-75
2022/04/28 04:34:45;;;;;;;0.10;0.10;;;;;;;;;;5051631;28;20493;-74
2022/04/28 04:37:11;;;;;;;0.10;0.10;;;;;;;;;;5051546;28;20040;-75
2022/04/28 04:39:38;;;;;;;0.10;0.10;;;;;;;;;;5050949;28;20551;-76
2022/04/28 04:42:04;;;;;;;0.10;0.10;;;;;;;;;;5051259;28;20086;-76
2022/04/28 04:44:30;;;;;;;0.10;0.10;;;;;;;;;;5050731;28;20033;-75
2022/04/28 04:46:56;;;;;;;0.10;0.10;;;;;;;;;;5049923;28;20032;-76
2022/04/28 04:49:22;;;;;;;0.10;0.10;;;;;;;;;;5050870;28;20385;-75
2022/04/28 04:51:54;;;;;;;0.10;0.10;;;;;;;;;;5051132;28;20388;-76
2022/04/28 04:54:20;;;;;;;0.10;0.10;;;;;;;;;;5049483;28;20144;-76
2022/04/28 04:56:46;;;;;;;0.10;0.10;;;;;;;;;;5049653;28;20186;-75
2022/04/28 04:59:12;;;;;;;0.20;0.20;;;;;;;;;;5051293;28;20025;-76
2022/04/28 05:01:38;;;;;;;0.10;0.10;;;;;;;;;;5045657;28;20029;-76
2022/04/28 05:04:04;;;;;;;0.10;0.10;;;;;;;;;;5052070;28;20114;-76
2022/04/28 05:06:30;;;;;;;0.10;0.10;;;;;;;;;;5054542;28;20037;-76
2022/04/28 05:08:57;;;;;;;0.13;0.13;;;;;;;;;;5046885;28;20021;-76
2022/04/28 05:11:23;;;;;;;0.10;0.10;;;;;;;;;;5034533;28;20021;-77
2022/04/28 05:13:49;;;;;;;0.10;0.10;;;;;;;;;;5035457;28;20030;-76
2022/04/28 05:16:15;;;;;;;0.10;0.10;;;;;;;;;;5048969;28;20382;-75
2022/04/28 05:18:41;;;;;;;0.10;0.10;;;;;;;;;;5042050;28;20036;-76
2022/04/28 05:21:07;;;;;;;0.10;0.10;;;;;;;;;;5048231;28;20366;-76
2022/04/28 05:23:33;;;;;;;0.10;0.10;;;;;;;;;;5034517;28;20025;-76
2022/04/28 05:25:59;;;;;;;0.10;0.10;;;;;;;;;;5034523;28;20025;-75
2022/04/28 05:28:26;;;;;;;0.10;0.10;;;;;;;;;;5034588;28;20466;-77
2022/04/28 05:30:55;;;;;;;0.10;0.10;;;;;;;;;;5034742;28;20017;-76
2022/04/28 05:33:21;;;;;;;0.10;0.10;;;;;;;;;;5049302;28;20037;-76
2022/04/28 05:35:47;;;;;;;0.20;0.20;;;;;;;;;;5041122;28;20080;-76
2022/04/28 05:38:13;;;;;;;0.10;0.10;;;;;;;;;;5043523;28;20067;-76
2022/04/28 05:40:40;;;;;;;0.10;0.10;;;;;;;;;;5052674;28;20106;-76
2022/04/28 05:45:51;;;;;;;0.10;0.10;;;;;;;;;;5034287;28;20136;-76
2022/04/28 05:48:18;;;;;;;0.10;0.10;;;;;;;;;;5039057;28;20029;-76
2022/04/28 05:50:45;;;;;;;0.10;0.10;;;;;;;;;;5053924;28;20053;-75
2022/04/28 05:53:11;;;;;;;0.10;0.10;;;;;;;;;;5052381;28;20021;-76
2022/04/28 05:55:38;;;;;;;0.10;0.10;;;;;;;;;;5036430;28;20116;-76
2022/04/28 05:58:04;;;;;;;0.10;0.10;;;;;;;;;;5034201;28;20030;-75
2022/04/28 06:00:30;;;;;;;0.10;0.10;;;;;;;;;;5033961;28;20144;-77
2022/04/28 06:02:56;;;;;;;0.10;0.10;;;;;;;;;;5035066;28;20036;-76
2022/04/28 06:05:22;;;;;;;0.10;0.10;;;;;;;;;;5032396;28;20383;-77
2022/04/28 06:07:49;;;;;;;0.10;0.10;;;;;;;;;;5039302;28;20440;-76
2022/04/28 06:10:15;;;;;;;0.20;0.20;;;;;;;;;;5040774;28;20089;-76
2022/04/28 06:12:41;;;;;;;0.10;0.10;;;;;;;;;;5034298;28;20025;-75
2022/04/28 06:15:08;;;;;;;0.10;0.10;;;;;;;;;;5034380;28;20034;-78
2022/04/28 06:17:34;;;;;;;0.10;0.10;;;;;;;;;;5033371;28;20597;-78
2022/04/28 06:20:00;;;;;;;0.10;0.10;;;;;;;;;;5033856;28;20505;-77
2022/04/28 06:22:27;;;;;;;0.10;0.10;;;;;;;;;;5033418;28;20021;-78
2022/04/28 06:24:56;;;;;;;0.10;0.10;;;;;;;;;;5033739;28;20036;-78
2022/04/28 06:27:22;;;;;;;0.10;0.10;;;;;;;;;;5048374;28;20024;-79
2022/04/28 06:29:49;;;;;;;0.20;0.20;;;;;;;;;;5047024;28;20029;-79
2022/04/28 06:32:19;;;;;;;0.10;0.10;;;;;;;;;;5041620;28;20365;-78
2022/04/28 06:34:45;;;;;;;0.10;0.10;;;;;;;;;;5042855;28;20048;-78
2022/04/28 06:37:14;;;;;;;0.10;0.10;;;;;;;;;;5041712;28;20083;-78
2022/04/28 06:39:40;;;;;;;0.10;0.10;;;;;;;;;;5041523;28;20096;-77
2022/04/28 06:42:07;;;;;;;0.10;0.10;;;;;;;;;;5035934;28;20026;-77
2022/04/28 06:44:33;;;;;;;0.13;0.13;;;;;;;;;;5037375;28;20032;-78
2022/04/28 06:46:59;;;;;;;0.10;0.10;;;;;;;;;;5041557;28;20032;-78
2022/04/28 06:49:25;;;;;;;0.10;0.10;;;;;;;;;;5041657;28;20033;-75
2022/04/28 06:51:51;;;;;;;0.10;0.10;;;;;;;;;;5041058;28;20519;-76
2022/04/28 06:54:17;;;;;;;0.13;0.13;;;;;;;;;;5039842;28;20488;-78
2022/04/28 06:56:43;;;;;;;0.10;0.10;;;;;;;;;;5041760;28;20044;-77
2022/04/28 06:59:11;;;;;;;0.15;0.15;;;;;;;;;;5040590;28;20026;-76
2022/04/28 07:01:37;;;;;;;0.10;0.10;;;;;;;;;;5042424;28;20040;-76
2022/04/28 07:04:03;;;;;;;0.10;0.10;;;;;;;;;;5042209;28;20022;-78
2022/04/28 07:06:29;;;;;;;0.10;0.10;;;;;;;;;;5040090;28;20047;-77
2022/04/28 07:08:55;;;;;;;0.10;0.10;;;;;;;;;;5041690;28;20028;-78
2022/04/28 07:11:21;;;;;;;0.20;0.20;;;;;;;;;;5041389;28;20033;-77
2022/04/28 07:13:47;;;;;;;0.10;0.10;;;;;;;;;;5041132;28;20017;-78
2022/04/28 07:16:13;;;;;;;0.10;0.10;;;;;;;;;;5040595;28;20036;-78
2022/04/28 07:18:39;;;;;;;0.10;0.10;;;;;;;;;;5042727;28;20025;-79
2022/04/28 07:21:05;;;;;;;0.10;0.10;;;;;;;;;;5049021;28;20055;-78
2022/04/28 07:23:31;;;;;;;0.10;0.10;;;;;;;;;;5052246;28;20025;-78
2022/04/28 07:25:57;;;;;;;0.10;0.10;;;;;;;;;;5052627;28;20037;-79
2022/04/28 07:28:23;;;;;;;0.10;0.10;;;;;;;;;;5040478;28;20120;-78
2022/04/28 07:30:49;;;;;;;0.10;0.10;;;;;;;;;;5035642;28;20035;-78
2022/04/28 07:33:15;;;;;;;0.10;0.10;;;;;;;;;;5032266;28;20017;-76
2022/04/28 07:35:41;;;;;;;0.10;0.10;;;;;;;;;;5040788;28;20051;-79
2022/04/28 07:38:08;;;;;;;0.03;0.03;;;;;;;;;;5032418;28;20075;-77
2022/04/28 07:40:34;;;;;;;0.10;0.10;;;;;;;;;;5032183;28;20164;-78
2022/04/28 07:43:00;;;;;;;0.10;0.10;;;;;;;;;;5032315;28;20116;-78
2022/04/28 07:45:26;;;;;;;0.10;0.10;;;;;;;;;;5031762;28;20034;-80
2022/04/28 07:47:52;;;;;;;0.10;0.10;;;;;;;;;;5032179;28;20108;-80
2022/04/28 07:50:18;;;;;;;0.10;0.10;;;;;;;;;;5038195;28;20489;-78
2022/04/28 07:52:44;;;;;;;0.10;0.10;;;;;;;;;;5052243;28;20550;-76
2022/04/28 07:55:11;;;;;;;0.10;0.10;;;;;;;;;;5052307;28;20086;-78
2022/04/28 07:57:37;;;;;;;0.10;0.10;;;;;;;;;;5051685;28;20493;-79
2022/04/28 08:00:07;;;;;;;0.10;0.10;;;;;;;;;;5049899;28;20025;-78
2022/04/28 08:02:33;;;;;;;0.10;0.10;;;;;;;;;;5051502;28;20477;-79
2022/04/28 08:05:00;;;;;;;0.10;0.10;;;;;;;;;;5051805;28;20021;-79
2022/04/28 08:07:26;;;;;;;0.10;0.10;;;;;;;;;;5044637;28;20033;-78
2022/04/28 08:09:52;;;;;;;0.10;0.10;;;;;;;;;;5042353;28;20489;-79
2022/04/28 08:12:19;;;;;;;0.10;0.10;;;;;;;;;;5050065;28;20028;-78
2022/04/28 08:14:45;;;;;;;0.10;0.10;;;;;;;;;;5051353;28;20075;-76
2022/04/28 08:17:11;;;;;;;0.10;0.10;;;;;;;;;;5050130;28;20477;-78
2022/04/28 08:19:37;;;;;;;0.10;0.10;;;;;;;;;;5051398;28;20052;-79
2022/04/28 08:22:03;;;;;;;0.10;0.10;;;;;;;;;;5051648;28;20021;-79
2022/04/28 08:24:29;;;;;;;0.10;0.10;;;;;;;;;;5052840;28;20025;-81
2022/04/28 08:26:55;;;;;;;0.10;0.10;;;;;;;;;;5044013;28;20121;-78
2022/04/28 08:29:24;;;;;;;0.10;0.10;;;;;;;;;;5031337;28;20033;-76
2022/04/28 08:31:51;;;;;;;0.20;0.20;;;;;;;;;;5031399;28;20025;-80
2022/04/28 08:34:22;;;;;;;0.10;0.10;;;;;;;;;;5031344;28;20033;-78
2022/04/28 08:36:48;;;;;;;0.32;0.32;;;;;;;;;;5031482;28;20033;-78
2022/04/28 08:39:15;;;;;;;0.10;0.10;;;;;;;;;;5030543;28;20038;-75
2022/04/28 08:41:42;;;;;;;0.10;0.10;;;;;;;;;;5032501;28;20029;-79
2022/04/28 08:44:14;;;;;;;0.10;0.10;;;;;;;;;;5030894;28;20492;-77
2022/04/28 08:46:52;;;;;;;0.10;0.10;;;;;;;;;;5031667;28;20125;-76
2022/04/28 08:49:18;;;;;;;0.10;0.10;;;;;;;;;;5030956;28;20028;-76
2022/04/28 08:51:44;;;;;;;0.10;0.10;;;;;;;;;;5032071;28;20384;-77
2022/04/28 08:54:11;;;;;;;0.03;0.03;;;;;;;;;;5047117;28;20032;-76
2022/04/28 08:56:39;;;;;;;0.20;0.20;;;;;;;;;;5050306;28;20033;-78
2022/04/28 08:59:05;;;;;;;0.10;0.10;;;;;;;;;;5051068;28;20447;-72
2022/04/28 09:01:31;;;;;;;0.20;0.20;;;;;;;;;;5050897;28;20022;-80
2022/04/28 09:03:58;;;;;;;0.10;0.10;;;;;;;;;;5049849;28;20499;-78
2022/04/28 09:06:29;;;;;;;0.10;0.10;;;;;;;;;;5035499;28;20025;-79
2022/04/28 09:08:55;;;;;;;0.10;0.10;;;;;;;;;;5050622;28;20079;-78
2022/04/28 09:11:26;;;;;;;0.10;0.10;;;;;;;;;;5037761;28;20025;-77
2022/04/28 09:14:10;;;;;;;0.10;0.10;;;;;;;;;;5033385;28;20025;-78
2022/04/28 09:16:39;;;;;;;0.15;0.15;;;;;;;;;;5031729;28;20061;-77
2022/04/28 09:19:05;;;;;;;0.10;0.10;;;;;;;;;;5047972;28;20033;-76
2022/04/28 09:21:35;;;;;;;0.10;0.10;;;;;;;;;;5029289;28;20393;-78
2022/04/28 09:24:02;;;;;;;0.10;0.10;;;;;;;;;;5031013;28;20025;-79
2022/04/28 09:26:28;;;;;;;0.10;0.10;;;;;;;;;;5030676;28;20539;-79
2022/04/28 09:28:54;;;;;;;0.10;0.10;;;;;;;;;;5030906;28;20132;-77
2022/04/28 09:31:21;;;;;;;0.10;0.10;;;;;;;;;;5030666;28;20029;-77
2022/04/28 09:33:50;;;;;;;0.10;0.10;;;;;;;;;;5030836;28;20026;-78
2022/04/28 09:36:16;;;;;;;0.10;0.10;;;;;;;;;;5030650;28;20050;-78
2022/04/28 09:38:42;;;;;;;0.10;0.10;;;;;;;;;;5029800;28;20370;-79
2022/04/28 09:43:57;;;;;;;0.10;0.10;;;;;;;;;;5031140;28;20040;-76
2022/04/28 09:46:23;;;;;;;0.10;0.10;;;;;;;;;;5041896;28;20033;-77
2022/04/28 09:48:50;;;;;;;0.10;0.10;;;;;;;;;;5030702;28;20030;-77
2022/04/28 09:51:20;;;;;;;0.10;0.10;;;;;;;;;;5033601;28;20083;-77
2022/04/28 09:53:48;;;;;;;0.10;0.10;;;;;;;;;;5034457;28;20021;-78
2022/04/28 09:56:16;;;;;;;0.10;0.10;;;;;;;;;;5034530;28;20021;-78
2022/04/28 09:58:42;;;;;;;0.10;0.10;;;;;;;;;;5034558;28;20025;-77
2022/04/28 10:01:08;;;;;;;0.10;0.10;;;;;;;;;;5033136;28;20385;-77
2022/04/28 10:03:35;;;;;;;0.10;0.10;;;;;;;;;;5034044;28;20591;-77
2022/04/28 10:06:08;;;;;;;0.20;0.20;;;;;;;;;;5034227;28;20026;-77
2022/04/28 10:08:35;;;;;;;0.10;0.10;;;;;;;;;;5033924;28;20080;-77
2022/04/28 10:11:03;;;;;;;0.10;0.10;;;;;;;;;;5034173;28;20072;-77
2022/04/28 10:13:30;;;;;;;0.10;0.10;;;;;;;;;;5033808;28;20450;-77
2022/04/28 10:15:57;;;;;;;0.10;0.10;;;;;;;;;;5034015;28;20041;-78
2022/04/28 10:18:24;;;;;;;0.10;0.10;;;;;;;;;;5049722;28;20112;-79
2022/04/28 10:20:50;;;;;;;0.10;0.10;;;;;;;;;;5053870;28;20116;-79
2022/04/28 10:23:17;;;;;;;0.10;0.10;;;;;;;;;;5053002;28;20096;-78
2022/04/28 10:34:55;;;;;;;0.20;0.20;;;;;;;;;;5033475;28;20402;-80
2022/04/28 10:37:24;;;;;;;0.17;0.17;;;;;;;;;;5033299;28;20036;-83
2022/04/28 10:39:55;;;;;;;0.10;0.10;;;;;;;;;;5033061;28;20025;-80
2022/04/28 10:42:44;;;;;;;0.10;0.10;;;;;;;;;;5036882;28;20373;-79
2022/04/28 10:45:22;;;;;;;0.10;0.10;;;;;;;;;;5033710;28;20033;-79
2022/04/28 10:47:48;;;;;;;0.20;0.20;;;;;;;;;;5033337;28;20026;-79
2022/04/28 10:50:21;;;;;;;0.10;0.10;;;;;;;;;;5033061;28;20029;-77
2022/04/28 10:52:56;;;;;;;0.10;0.10;;;;;;;;;;5038507;28;20036;-78
2022/04/28 10:55:25;;;;;;;0.10;0.10;;;;;;;;;;5033924;28;20057;-79
2022/04/28 10:57:52;;;;;;;0.10;0.10;;;;;;;;;;5039912;28;20037;-78
2022/04/28 11:00:34;;;;;;;0.10;0.10;;;;;;;;;;5052814;28;20043;-79
2022/04/28 11:03:00;;;;;;;0.10;0.10;;;;;;;;;;5038524;28;20044;-78
2022/04/28 11:05:27;;;;;;;0.10;0.10;;;;;;;;;;5038404;28;20024;-79
2022/04/28 11:07:53;;;;;;;0.10;0.10;;;;;;;;;;5042587;28;20032;-79
2022/04/28 11:10:19;;;;;;;0.10;0.10;;;;;;;;;;5032594;28;20029;-79
2022/04/28 11:12:45;;;;;;;0.10;0.10;;;;;;;;;;5032998;28;20545;-79
2022/04/28 11:15:14;;;;;;;0.10;0.10;;;;;;;;;;5034164;28;20040;-79
2022/04/28 11:17:44;;;;;;;0.10;0.10;;;;;;;;;;5038400;28;20040;-80
2022/04/28 11:20:18;;;;;;;0.10;0.10;;;;;;;;;;5052220;28;20108;-78
2022/04/28 11:22:51;;;;;;;0.10;0.10;;;;;;;;;;5052797;28;20035;-76
2022/04/28 11:25:17;;;;;;;0.40;0.40;;;;;;;;;;5035790;28;20025;-77
2022/04/28 11:27:49;;;;;;;0.10;0.10;;;;;;;;;;5051937;28;20075;-78
2022/04/28 11:30:19;;;;;;;0.10;0.10;;;;;;;;;;5049097;28;20025;-78
2022/04/28 11:32:51;;;;;;;0.10;0.10;;;;;;;;;;5052091;28;20546;-77
2022/04/28 11:35:17;;;;;;;1.13;1.08;;;;;;;;;;5038134;28;20449;-77
2022/04/28 11:37:43;;;;;;;0.10;0.10;;;;;;;;;;5040452;28;20068;-80
2022/04/28 11:40:13;;;;;;;0.10;0.10;;;;;;;;;;5052793;28;20044;-80
2022/04/28 11:42:41;;;;;;;0.10;0.10;;;;;;;;;;5044266;28;20586;-80
2022/04/28 11:45:07;;;;;;;0.10;0.10;;;;;;;;;;5031980;28;20033;-80
2022/04/28 11:47:37;;;;;;;0.10;0.10;;;;;;;;;;5031836;28;20025;-79
2022/04/28 11:50:03;;;;;;;0.10;0.10;;;;;;;;;;5036858;28;20029;-79
2022/04/28 11:52:34;;;;;;;0.10;0.10;;;;;;;;;;5040709;28;20033;-79
2022/04/28 11:55:06;;;;;;;0.10;0.10;;;;;;;;;;5050073;28;20124;-78
2022/04/28 11:57:33;;;;;;;0.05;0.05;;;;;;;;;;5041731;28;20037;-76
2022/04/28 11:59:59;;;;;;;0.10;0.10;;;;;;;;;;5039984;28;20013;-80
2022/04/28 12:02:28;;;;;;;0.10;0.10;;;;;;;;;;5038860;28;20109;-79
2022/04/28 12:04:55;;;;;;;0.10;0.10;;;;;;;;;;5043711;28;20393;-79
2022/04/28 12:07:21;;;;;;;0.10;0.10;;;;;;;;;;5040127;28;20021;-79
2022/04/28 12:15:21;;;;;;;0.10;0.10;;;;;;;;;;5037897;28;20032;-80
2022/04/28 12:20:55;;;;;;;0.10;0.10;;;;;;;;;;5039539;28;20086;-78
2022/04/28 12:23:49;;;;;;;0.10;0.10;;;;;;;;;;5035612;28;20148;-79
2022/04/28 12:26:15;;;;;;;0.10;0.10;;;;;;;;;;5035784;28;20048;-78
2022/04/28 12:28:42;;;;;;;0.10;0.10;;;;;;;;;;5046158;28;20397;-78
2022/04/28 12:31:09;;;;;;;0.10;0.10;;;;;;;;;;5035756;28;20032;-77
2022/04/28 12:33:37;;;;;;;0.10;0.10;;;;;;;;;;5031264;28;20477;-77
2022/04/28 12:36:04;;;;;;;0.10;0.10;;;;;;;;;;5031312;28;20034;-78
2022/04/28 12:38:34;;;;;;;0.10;0.10;;;;;;;;;;5032209;28;20045;-77
2022/04/28 12:41:11;;;;;;;0.10;0.10;;;;;;;;;;5030043;28;20033;-77
2022/04/28 12:43:38;;;;;;;0.10;0.10;;;;;;;;;;5031974;28;20030;-76
2022/04/28 12:46:06;;;;;;;0.10;0.10;;;;;;;;;;5031325;28;20033;-76
2022/04/28 12:48:32;;;;;;;0.10;0.10;;;;;;;;;;5033627;28;20108;-79
2022/04/28 12:51:10;;;;;;;0.10;0.10;;;;;;;;;;5051120;28;20025;-77
2022/04/28 12:53:37;;;;;;;0.10;0.10;;;;;;;;;;5030750;28;20057;-77
2022/04/28 12:56:04;;;;;;;0.10;0.10;;;;;;;;;;5039288;28;20519;-76
2022/04/28 12:58:30;;;;;;;0.10;0.10;;;;;;;;;;5050729;28;20033;-77
2022/04/28 13:00:56;;;;;;;0.10;0.10;;;;;;;;;;5051162;28;20435;-79
2022/04/28 13:03:28;;;;;;;0.05;0.05;;;;;;;;;;5049527;28;20074;-77
2022/04/28 13:05:54;;;;;;;0.10;0.10;;;;;;;;;;5051107;28;20044;-77
2022/04/28 13:08:20;;;;;;;0.10;0.10;;;;;;;;;;5050855;28;20104;-76
2022/04/28 13:10:47;;;;;;;0.10;0.10;;;;;;;;;;5042186;28;20100;-77
2022/04/28 13:13:12;;;;;;;0.10;0.10;;;;;;;;;;5031294;28;20026;-77
2022/04/28 13:15:38;;;;;;;0.10;0.10;;;;;;;;;;5030779;28;20026;-76
2022/04/28 13:18:05;;;;;;;0.10;0.10;;;;;;;;;;5031336;28;20072;-77
2022/04/28 13:20:31;;;;;;;0.10;0.10;;;;;;;;;;5030887;28;20524;-76
2022/04/28 13:22:57;;;;;;;0.10;0.10;;;;;;;;;;5030933;28;20026;-76
2022/04/28 13:25:23;;;;;;;0.10;0.10;;;;;;;;;;5033163;28;20030;-76
2022/04/28 13:27:49;;;;;;;0.10;0.10;;;;;;;;;;5034542;28;20359;-76
2022/04/28 13:30:16;;;;;;;0.10;0.10;;;;;;;;;;5035392;28;20045;-77
2022/04/28 13:32:42;;;;;;;0.10;0.10;;;;;;;;;;5033848;28;20468;-76
2022/04/28 13:35:09;;;;;;;0.10;0.10;;;;;;;;;;5034653;28;20021;-77
2022/04/28 13:37:34;;;;;;;0.10;0.10;;;;;;;;;;5034198;28;20041;-77
2022/04/28 13:40:01;;;;;;;0.10;0.10;;;;;;;;;;5034690;28;20537;-76
2022/04/28 13:42:27;;;;;;;0.10;0.10;;;;;;;;;;5033187;28;20041;-76
2022/04/28 13:44:53;;;;;;;0.10;0.10;;;;;;;;;;5049708;28;20396;-76
2022/04/28 13:47:19;;;;;;;0.10;0.10;;;;;;;;;;5039776;28;20083;-75
2022/04/28 13:49:45;;;;;;;0.10;0.10;;;;;;;;;;5034550;28;20032;-76
2022/04/28 13:52:11;;;;;;;0.10;0.10;;;;;;;;;;5033443;28;20413;-77
2022/04/28 13:54:37;;;;;;;0.10;0.10;;;;;;;;;;5034042;28;20052;-76
2022/04/28 13:57:03;;;;;;;0.10;0.10;;;;;;;;;;5034273;28;20072;-76
2022/04/28 13:59:29;;;;;;;0.13;0.13;;;;;;;;;;5032852;28;20366;-76
2022/04/28 14:01:55;;;;;;;0.10;0.10;;;;;;;;;;5043441;28;20477;-76
2022/04/28 14:04:25;;;;;;;0.10;0.10;;;;;;;;;;5054073;28;20096;-76
2022/04/28 14:06:54;;;;;;;0.10;0.10;;;;;;;;;;5053881;28;20021;-76
2022/04/28 14:09:20;;;;;;;0.10;0.10;;;;;;;;;;5053831;28;20480;-76
2022/04/28 14:11:47;;;;;;;0.10;0.10;;;;;;;;;;5054155;28;20032;-75
2022/04/28 14:14:13;;;;;;;0.10;0.10;;;;;;;;;;5054098;28;20029;-76
2022/04/28 14:16:39;;;;;;;0.10;0.10;;;;;;;;;;5037927;28;20443;-75
2022/04/28 14:19:06;;;;;;;0.10;0.10;;;;;;;;;;5033933;28;20022;-75
2022/04/28 14:21:33;;;;;;;0.10;0.10;;;;;;;;;;5042050;28;20041;-76
2022/04/28 14:23:59;;;;;;;0.10;0.10;;;;;;;;;;5053724;28;20013;-76
2022/04/28 14:26:25;;;;;;;0.10;0.10;;;;;;;;;;5053649;28;20063;-75
2022/04/28 14:28:51;;;;;;;0.10;0.10;;;;;;;;;;5053805;28;20052;-76
2022/04/28 14:31:18;;;;;;;0.10;0.10;;;;;;;;;;5053552;28;20056;-76
2022/04/28 14:33:44;;;;;;;0.10;0.10;;;;;;;;;;5053814;28;20021;-75
2022/04/28 14:36:10;;;;;;;0.10;0.10;;;;;;;;;;5033426;28;20044;-76
2022/04/28 14:38:36;;;;;;;0.00;0.00;;;;;;;;;;5035166;28;20025;-76
2022/04/28 14:41:03;;;;;;;0.10;0.10;;;;;;;;;;5053199;28;20036;-76
2022/04/28 14:43:29;;;;;;;0.10;0.10;;;;;;;;;;5038733;28;20069;-76
2022/04/28 14:45:55;;;;;;;0.10;0.10;;;;;;;;;;5040441;28;20051;-75
2022/04/28 14:48:21;;;;;;;0.10;0.10;;;;;;;;;;5050446;28;20488;-76
2022/04/28 14:53:34;;;;;;;0.10;0.10;;;;;;;;;;5032609;28;20044;-76
2022/04/28 14:56:00;;;;;;;0.10;0.10;;;;;;;;;;5033222;28;20029;-76
2022/04/28 14:58:26;;;;;;;0.10;0.10;;;;;;;;;;5032963;28;20573;-77
2022/04/28 15:00:52;;;;;;;0.10;0.10;;;;;;;;;;5033205;28;20028;-76
2022/04/28 15:03:18;;;;;;;0.10;0.10;;;;;;;;;;5032572;28;20068;-76
2022/04/28 15:05:45;;;;;;;0.10;0.10;;;;;;;;;;5033215;28;20079;-75
2022/04/28 15:08:11;;;;;;;0.10;0.10;;;;;;;;;;5033271;28;20021;-75
2022/04/28 15:10:39;;;;;;;0.10;0.10;;;;;;;;;;5033222;28;20044;-76
2022/04/28 15:13:06;;;;;;;0.10;0.10;;;;;;;;;;5034375;28;20083;-76
2022/04/28 15:15:35;;;;;;;0.10;0.10;;;;;;;;;;5052496;28;20208;-76
2022/04/28 15:18:01;;;;;;;0.08;0.08;;;;;;;;;;5039111;28;20040;-76
2022/04/28 15:20:27;;;;;;;0.10;0.10;;;;;;;;;;5033975;28;20445;-76